Hegina — 3ETX2 — position and weather

sailwx.info

Track history (hours):
 
Tides and Currents Weather Stations Pressure Air Temp Water Temp Dewpoint Dewpoint Depression Visibility Wind Speed Wind Dir Waves Ship Positions

Hegina

Last reported at 2015-Jan-12 12:33 UTC. Time now 2015-Jan-27 18:55 UTC.
Position N 16°36' W 061°48'.
Warning: this ship's position is 15 days out of date.

Length 138 m; draft 7.9 m.

Type: Cargo ship. MMSI: 372427000.

Date/timePositionNaut miles runAvg speedWind from/ knotsBaromVisibWave heightAir tempDewpointWater temp
2015-Jan-12 12:33N 16°36' W 061°48'1313.0
2015-Jan-12 11:33N 16°40' W 061°35'1312.7
2015-Jan-12 10:33N 16°44' W 061°22'  
2015-Jan-05 15:24N 37°10' W 028°58'1011.9
2015-Jan-05 14:33N 37°16' W 028°47'1212.5
2015-Jan-05 13:33N 37°23' W 028°35'1212.0
2015-Jan-05 12:33N 37°30' W 028°22'1212.1
2015-Jan-05 11:33N 37°37' W 028°10'1312.6
2015-Jan-05 10:33N 37°44' W 027°57'1312.9
2015-Jan-05 09:33N 37°52' W 027°44'1313.3
2015-Jan-05 08:33N 37°60' W 027°30'1313.4
2015-Jan-05 07:33N 38°07' W 027°16'1413.7
2015-Jan-05 06:33N 38°16' W 027°03'1313.2
2015-Jan-05 05:34N 38°24' W 026°49'1313.3
2015-Jan-05 04:34N 38°31' W 026°35'1313.1
2015-Jan-05 03:33N 38°39' W 026°22'1212.4
2015-Jan-05 02:33N 38°47' W 026°09'2712.1
2015-Jan-05 00:20N 39°03' W 025°42'  
Track history (hours):
 
Tides and Currents Weather Stations Pressure Air Temp Water Temp Dewpoint Dewpoint Depression Visibility Wind Speed Wind Dir Waves Ship Positions

Hegina

Last reported at 2015-Jan-12 12:33 UTC. Time now 2015-Jan-27 18:55 UTC.
Position N 16°36' W 061°48'.
Warning: this ship's position is 15 days out of date.

Length 138 m; draft 7.9 m.

Type: Cargo ship. MMSI: 372427000.

Date/timePositionNaut miles runAvg speedWind from/ knotsBaromVisibWave heightAir tempDewpointWater temp
2015-Jan-12 12:33N 16°36' W 061°48'1313.0
2015-Jan-12 11:33N 16°40' W 061°35'1312.7
2015-Jan-12 10:33N 16°44' W 061°22'  
2015-Jan-05 15:24N 37°10' W 028°58'1011.9
2015-Jan-05 14:33N 37°16' W 028°47'1212.5
2015-Jan-05 13:33N 37°23' W 028°35'1212.0
2015-Jan-05 12:33N 37°30' W 028°22'1212.1
2015-Jan-05 11:33N 37°37' W 028°10'1312.6
2015-Jan-05 10:33N 37°44' W 027°57'1312.9
2015-Jan-05 09:33N 37°52' W 027°44'1313.3
2015-Jan-05 08:33N 37°60' W 027°30'1313.4
2015-Jan-05 07:33N 38°07' W 027°16'1413.7
2015-Jan-05 06:33N 38°16' W 027°03'1313.2
2015-Jan-05 05:34N 38°24' W 026°49'1313.3
2015-Jan-05 04:34N 38°31' W 026°35'1313.1
2015-Jan-05 03:33N 38°39' W 026°22'1212.4
2015-Jan-05 02:33N 38°47' W 026°09'2712.1
2015-Jan-05 00:20N 39°03' W 025°42'  

Dump ship's entire track history